createdAt,value
2018-03-16T00:00:43.786Z,0.00
2018-03-16T00:01:43.784Z,0.00
2018-03-16T00:02:43.778Z,0.00
2018-03-16T00:03:43.776Z,0.00
2018-03-16T00:04:43.769Z,0.00
2018-03-16T00:05:43.762Z,0.00
2018-03-16T00:06:43.759Z,0.00
2018-03-16T00:07:43.756Z,0.00
2018-03-16T00:08:43.749Z,0.00
2018-03-16T00:09:43.742Z,0.00
2018-03-16T00:10:43.738Z,0.00
2018-03-16T00:11:43.736Z,0.00
2018-03-16T00:12:43.728Z,0.00
2018-03-16T00:13:43.723Z,0.00
2018-03-16T00:14:43.717Z,0.00
2018-03-16T00:15:43.712Z,0.00
2018-03-16T00:16:43.708Z,0.00
2018-03-16T00:17:43.701Z,0.00
2018-03-16T00:18:43.696Z,0.00
2018-03-16T00:19:43.694Z,0.00
2018-03-16T00:20:43.686Z,0.00
2018-03-16T00:21:43.680Z,0.00
2018-03-16T00:22:43.676Z,0.00
2018-03-16T00:23:43.672Z,0.00
2018-03-16T00:24:43.667Z,0.00
2018-03-16T00:25:43.716Z,0.00
2018-03-16T00:26:43.656Z,0.00
2018-03-16T00:27:43.653Z,0.00
2018-03-16T00:28:43.646Z,0.00
2018-03-16T00:29:43.646Z,0.00
2018-03-16T00:30:43.636Z,0.00
2018-03-16T00:31:43.637Z,0.00
2018-03-16T00:32:43.627Z,0.00
2018-03-16T00:33:43.623Z,0.00
2018-03-16T00:34:43.614Z,0.00
2018-03-16T00:35:43.611Z,0.00
2018-03-16T00:36:43.607Z,0.00
2018-03-16T00:37:43.601Z,0.00
2018-03-16T00:38:43.594Z,0.00
2018-03-16T00:39:43.590Z,0.00
2018-03-16T00:40:43.584Z,0.00
2018-03-16T00:41:43.583Z,0.00
2018-03-16T00:42:43.577Z,0.00
2018-03-16T00:43:43.571Z,0.00
2018-03-16T00:44:43.565Z,0.00
2018-03-16T00:45:43.560Z,0.00
2018-03-16T00:46:43.556Z,0.00
2018-03-16T00:47:43.550Z,0.00
2018-03-16T00:48:43.545Z,0.00
2018-03-16T00:49:43.541Z,0.00
2018-03-16T00:50:43.535Z,0.00
2018-03-16T00:51:43.531Z,0.00
2018-03-16T00:52:43.525Z,0.00
2018-03-16T00:53:43.524Z,0.00
2018-03-16T00:54:43.516Z,0.00
2018-03-16T00:55:43.510Z,0.00
2018-03-16T00:56:43.504Z,0.00
2018-03-16T00:57:43.501Z,0.00
2018-03-16T00:58:43.495Z,0.00
2018-03-16T00:59:43.494Z,0.00
2018-03-16T01:00:43.486Z,0.00
2018-03-16T01:01:43.482Z,0.00
2018-03-16T01:02:43.476Z,0.00
2018-03-16T01:03:43.469Z,0.00
2018-03-16T01:04:43.466Z,0.00
2018-03-16T01:05:43.463Z,0.00
2018-03-16T01:06:43.455Z,0.00
2018-03-16T01:07:43.453Z,0.00
2018-03-16T01:08:43.471Z,0.00
2018-03-16T01:09:43.441Z,0.00
2018-03-16T01:10:43.435Z,0.00
2018-03-16T01:11:43.431Z,0.00
2018-03-16T01:12:43.426Z,0.00
2018-03-16T01:13:43.426Z,0.00
2018-03-16T01:14:43.421Z,0.00
2018-03-16T01:15:43.411Z,0.00
2018-03-16T01:16:43.406Z,0.00
2018-03-16T01:17:43.401Z,0.00
2018-03-16T01:18:43.396Z,0.00
2018-03-16T01:19:43.392Z,0.00
2018-03-16T01:20:43.387Z,0.00
2018-03-16T01:21:43.388Z,0.00
2018-03-16T01:22:43.378Z,0.00
2018-03-16T01:23:43.372Z,0.00
2018-03-16T01:24:43.368Z,0.00
2018-03-16T01:25:43.367Z,0.00
2018-03-16T01:26:43.359Z,0.00
2018-03-16T01:27:43.352Z,0.00
2018-03-16T01:28:43.347Z,0.00
2018-03-16T01:29:43.342Z,0.00
2018-03-16T01:30:43.336Z,0.00
2018-03-16T01:31:43.332Z,0.00
2018-03-16T01:32:43.328Z,0.00
2018-03-16T01:33:43.322Z,0.00
2018-03-16T01:34:43.319Z,0.00
2018-03-16T01:35:43.351Z,0.00
2018-03-16T01:36:43.307Z,0.00
2018-03-16T01:37:43.302Z,0.00
2018-03-16T01:38:43.296Z,0.00
2018-03-16T01:39:43.291Z,0.00
2018-03-16T01:40:43.285Z,0.00
2018-03-16T01:41:43.281Z,0.00
2018-03-16T01:42:43.276Z,0.00
2018-03-16T01:43:43.270Z,0.00
2018-03-16T01:44:43.266Z,0.00
2018-03-16T01:45:43.260Z,0.00
2018-03-16T01:46:43.254Z,0.00
2018-03-16T01:47:43.248Z,0.00
2018-03-16T01:48:43.243Z,0.00
2018-03-16T01:49:43.237Z,0.00
2018-03-16T01:50:43.233Z,0.00
2018-03-16T01:51:43.225Z,0.00
2018-03-16T01:52:43.221Z,0.00
2018-03-16T01:53:43.222Z,0.00
2018-03-16T01:54:43.214Z,0.00
2018-03-16T01:55:43.206Z,0.00
2018-03-16T01:56:43.203Z,0.00
2018-03-16T01:57:43.196Z,0.00
2018-03-16T01:58:43.189Z,0.00
2018-03-16T01:59:43.187Z,0.00
2018-03-16T02:00:43.178Z,0.00
2018-03-16T02:01:43.173Z,0.00
2018-03-16T02:02:43.169Z,0.00
2018-03-16T02:03:43.163Z,0.00
2018-03-16T02:04:43.160Z,0.00
2018-03-16T02:05:43.154Z,0.00
2018-03-16T02:06:43.146Z,0.00
2018-03-16T02:07:43.140Z,0.00
2018-03-16T02:08:43.135Z,0.00
2018-03-16T02:09:43.130Z,0.00
2018-03-16T02:10:43.124Z,0.00
2018-03-16T02:11:43.119Z,0.00
2018-03-16T02:12:43.115Z,0.00
2018-03-16T02:13:43.108Z,0.00
2018-03-16T02:14:43.101Z,0.00
2018-03-16T02:15:43.098Z,0.00
2018-03-16T02:16:43.092Z,0.00
2018-03-16T02:17:43.086Z,0.00
2018-03-16T02:18:43.080Z,0.00
2018-03-16T02:19:43.083Z,0.00
2018-03-16T02:20:43.070Z,0.00
2018-03-16T02:21:43.065Z,0.00
2018-03-16T02:22:43.058Z,0.00
2018-03-16T02:23:43.053Z,0.00
2018-03-16T02:24:43.048Z,0.00
2018-03-16T02:25:43.042Z,0.00
2018-03-16T02:26:43.035Z,0.00
2018-03-16T02:27:43.030Z,0.00
2018-03-16T02:28:43.025Z,0.00
2018-03-16T02:29:43.020Z,0.00
2018-03-16T02:30:43.014Z,0.00
2018-03-16T02:31:43.008Z,0.00
2018-03-16T02:32:43.003Z,0.00
2018-03-16T02:33:42.999Z,0.00
2018-03-16T02:34:42.991Z,0.00
2018-03-16T02:35:42.984Z,0.00
2018-03-16T02:36:42.983Z,0.00
2018-03-16T02:37:42.978Z,0.00
2018-03-16T02:38:42.970Z,0.00
2018-03-16T02:39:42.962Z,0.00
2018-03-16T02:40:42.958Z,0.00
2018-03-16T02:41:42.953Z,0.00
2018-03-16T02:42:42.947Z,0.00
2018-03-16T02:43:42.946Z,0.00
2018-03-16T02:44:42.937Z,0.00
2018-03-16T02:45:42.929Z,0.00
2018-03-16T02:46:42.923Z,0.00
2018-03-16T02:47:42.921Z,0.00
2018-03-16T02:48:42.914Z,0.00
2018-03-16T02:49:42.907Z,0.00
2018-03-16T02:50:42.902Z,0.00
2018-03-16T02:51:42.898Z,0.00
2018-03-16T02:52:42.891Z,0.00
2018-03-16T02:53:42.886Z,0.00
2018-03-16T02:54:42.885Z,0.00
2018-03-16T02:55:42.872Z,0.00
2018-03-16T02:56:42.869Z,0.00
2018-03-16T02:57:42.912Z,0.00
2018-03-16T02:58:42.863Z,0.00
2018-03-16T02:59:42.851Z,0.00
2018-03-16T03:00:42.847Z,0.00
2018-03-16T03:01:42.839Z,0.00
2018-03-16T03:02:42.832Z,0.00
2018-03-16T03:03:42.829Z,0.00
2018-03-16T03:04:42.835Z,0.00
2018-03-16T03:05:42.819Z,0.00
2018-03-16T03:06:42.872Z,0.00
2018-03-16T03:07:42.805Z,0.00
2018-03-16T03:08:42.800Z,0.00
2018-03-16T03:09:42.793Z,0.00
2018-03-16T03:10:42.788Z,0.00
2018-03-16T03:11:42.782Z,0.00
2018-03-16T03:12:42.781Z,0.00
2018-03-16T03:13:42.772Z,0.00
2018-03-16T03:14:42.765Z,0.00
2018-03-16T03:15:42.759Z,0.00
2018-03-16T03:16:42.753Z,0.00
2018-03-16T03:17:42.748Z,0.00
2018-03-16T03:18:42.742Z,0.00
2018-03-16T03:19:42.736Z,0.00
2018-03-16T03:20:42.734Z,0.00
2018-03-16T03:21:42.726Z,0.00
2018-03-16T03:22:42.725Z,0.00
2018-03-16T03:23:42.714Z,0.00
2018-03-16T03:24:42.707Z,0.00
2018-03-16T03:25:42.705Z,0.00
2018-03-16T03:26:42.697Z,0.00
2018-03-16T03:27:42.691Z,0.00
2018-03-16T03:28:42.687Z,0.00
2018-03-16T03:29:42.680Z,0.00
2018-03-16T03:30:42.680Z,0.00
2018-03-16T03:31:42.670Z,0.00
2018-03-16T03:32:42.664Z,0.00
2018-03-16T03:33:42.658Z,0.00
2018-03-16T03:34:42.655Z,0.00
2018-03-16T03:35:42.645Z,0.00
2018-03-16T03:36:42.644Z,0.00
2018-03-16T03:37:42.634Z,0.00
2018-03-16T03:38:42.627Z,0.00
2018-03-16T03:39:42.622Z,0.00
2018-03-16T03:40:42.617Z,0.00
2018-03-16T03:41:42.612Z,0.00
2018-03-16T03:42:42.604Z,0.00
2018-03-16T03:43:42.598Z,0.00
2018-03-16T03:44:42.595Z,0.00
2018-03-16T03:45:42.588Z,0.00
2018-03-16T03:46:42.583Z,0.00
2018-03-16T03:47:42.576Z,0.00
2018-03-16T03:48:42.572Z,0.00
2018-03-16T03:49:42.566Z,0.00
2018-03-16T03:50:42.562Z,0.00
2018-03-16T03:51:42.555Z,0.00
2018-03-16T03:52:42.548Z,0.00
2018-03-16T03:53:42.544Z,0.00
2018-03-16T03:54:42.540Z,0.00
2018-03-16T03:55:42.535Z,0.00
2018-03-16T03:56:42.526Z,0.00
2018-03-16T03:57:42.521Z,0.00
2018-03-16T03:58:42.565Z,0.00
2018-03-16T03:59:55.317Z,0.00
2018-03-16T04:00:46.552Z,0.00
2018-03-16T04:03:31.097Z,0.00
2018-03-16T04:04:31.046Z,0.00
2018-03-16T04:06:25.421Z,0.00
2018-03-16T04:07:25.395Z,0.00
2018-03-16T04:09:19.762Z,0.00
2018-03-16T04:10:19.743Z,0.00
2018-03-16T04:12:14.456Z,0.00
2018-03-16T04:13:14.094Z,0.00
2018-03-16T04:15:08.456Z,0.00
2018-03-16T04:16:08.444Z,0.00
2018-03-16T04:17:08.435Z,0.00
2018-03-16T04:18:08.427Z,0.00
2018-03-16T04:19:08.426Z,0.00
2018-03-16T04:20:08.419Z,0.00
2018-03-16T04:21:08.416Z,0.00
2018-03-16T04:22:08.406Z,0.00
2018-03-16T04:23:08.399Z,0.00
2018-03-16T04:24:08.394Z,0.00
2018-03-16T04:25:08.389Z,0.00
2018-03-16T04:26:08.382Z,0.00
2018-03-16T04:27:08.381Z,0.00
2018-03-16T04:28:08.372Z,0.00
2018-03-16T04:29:08.365Z,0.00
2018-03-16T04:30:08.359Z,0.00
2018-03-16T04:31:08.354Z,0.00
2018-03-16T04:32:08.347Z,0.00
2018-03-16T04:33:08.342Z,0.00
2018-03-16T04:34:08.336Z,0.00
2018-03-16T04:35:08.332Z,0.00
2018-03-16T04:36:08.327Z,0.00
2018-03-16T04:37:08.486Z,0.00
2018-03-16T04:38:08.313Z,0.00
2018-03-16T04:39:08.307Z,0.00
2018-03-16T04:40:08.304Z,0.00
2018-03-16T04:41:08.296Z,0.00
2018-03-16T04:42:08.290Z,0.00
2018-03-16T04:43:08.288Z,0.00
2018-03-16T04:44:08.352Z,0.00
2018-03-16T04:45:08.277Z,0.00
2018-03-16T04:46:08.279Z,0.00
2018-03-16T04:47:08.261Z,0.00
2018-03-16T04:48:08.261Z,0.00
2018-03-16T04:49:08.252Z,0.00
2018-03-16T04:50:08.243Z,0.00
2018-03-16T04:51:08.241Z,0.00
2018-03-16T04:52:08.232Z,0.00
2018-03-16T04:53:08.229Z,0.00
2018-03-16T04:54:08.221Z,0.00
2018-03-16T04:55:08.218Z,0.00
2018-03-16T04:56:08.210Z,0.00
2018-03-16T04:57:08.205Z,0.00
2018-03-16T04:58:08.198Z,0.00
2018-03-16T04:59:08.193Z,0.00
2018-03-16T05:00:08.186Z,0.00
2018-03-16T05:01:08.184Z,0.00
2018-03-16T05:02:08.174Z,0.00
2018-03-16T05:03:08.169Z,0.00
2018-03-16T05:04:08.165Z,0.00
2018-03-16T05:05:08.161Z,0.00
2018-03-16T05:06:08.150Z,0.00
2018-03-16T05:07:08.165Z,0.00
2018-03-16T05:08:08.143Z,0.00
2018-03-16T05:09:08.136Z,0.00
2018-03-16T05:10:08.141Z,0.00
2018-03-16T05:11:08.125Z,0.00
2018-03-16T05:12:08.127Z,0.00
2018-03-16T05:13:08.113Z,4.00
2018-03-16T05:14:08.105Z,4.00
2018-03-16T05:15:08.102Z,4.00
2018-03-16T05:16:08.095Z,4.00
2018-03-16T05:17:08.090Z,4.00
2018-03-16T05:18:08.084Z,8.00
2018-03-16T05:19:08.079Z,4.00
2018-03-16T05:20:08.078Z,8.00
2018-03-16T05:21:08.066Z,4.00
2018-03-16T05:22:08.061Z,8.00
2018-03-16T05:23:08.055Z,8.00
2018-03-16T05:24:08.049Z,12.00
2018-03-16T05:25:08.044Z,12.00
2018-03-16T05:26:08.048Z,16.00
2018-03-16T05:27:08.032Z,16.00
2018-03-16T05:28:08.027Z,20.00
2018-03-16T05:29:08.021Z,24.00
2018-03-16T05:30:08.014Z,24.00
2018-03-16T05:31:08.030Z,28.00
2018-03-16T05:32:08.003Z,28.00
2018-03-16T05:33:07.997Z,36.00
2018-03-16T05:34:07.993Z,40.00
2018-03-16T05:35:07.985Z,44.00
2018-03-16T05:36:07.980Z,48.00
2018-03-16T05:37:07.974Z,48.00
2018-03-16T05:38:07.968Z,52.00
2018-03-16T05:39:07.962Z,56.00
2018-03-16T05:40:07.956Z,60.00
2018-03-16T05:41:07.950Z,64.00
2018-03-16T05:42:07.949Z,72.00
2018-03-16T05:43:07.939Z,76.00
2018-03-16T05:44:07.933Z,84.00
2018-03-16T05:45:07.928Z,92.00
2018-03-16T05:46:07.960Z,100.00
2018-03-16T05:47:07.914Z,108.00
2018-03-16T05:48:07.910Z,120.00
2018-03-16T05:49:07.942Z,132.00
2018-03-16T05:50:07.898Z,140.00
2018-03-16T05:51:07.892Z,148.00
2018-03-16T05:52:07.887Z,152.00
2018-03-16T05:53:07.881Z,156.00
2018-03-16T05:54:07.875Z,156.00
2018-03-16T05:55:07.871Z,164.00
2018-03-16T05:56:07.866Z,172.00
2018-03-16T05:57:07.858Z,176.00
2018-03-16T05:58:07.876Z,176.00
2018-03-16T05:59:07.846Z,180.00
2018-03-16T06:00:07.841Z,184.00
2018-03-16T06:01:07.838Z,184.00
2018-03-16T06:02:07.829Z,184.00
2018-03-16T06:03:07.823Z,188.00
2018-03-16T06:04:07.817Z,196.00
2018-03-16T06:05:07.813Z,208.00
2018-03-16T06:06:07.809Z,224.00
2018-03-16T06:07:07.800Z,244.00
2018-03-16T06:08:07.794Z,256.00
2018-03-16T06:09:07.792Z,264.00
2018-03-16T06:10:07.782Z,264.00
2018-03-16T06:11:07.780Z,260.00
2018-03-16T06:12:07.772Z,256.00
2018-03-16T06:13:07.768Z,252.00
2018-03-16T06:14:07.760Z,252.00
2018-03-16T06:15:07.756Z,256.00
2018-03-16T06:16:07.749Z,264.00
2018-03-16T06:17:07.745Z,276.00
2018-03-16T06:18:07.736Z,288.00
2018-03-16T06:19:07.732Z,292.00
2018-03-16T06:20:07.726Z,296.00
2018-03-16T06:21:07.720Z,292.00
2018-03-16T06:22:07.713Z,288.00
2018-03-16T06:23:07.714Z,284.00
2018-03-16T06:24:07.707Z,284.00
2018-03-16T06:25:07.700Z,284.00
2018-03-16T06:26:07.696Z,284.00
2018-03-16T06:27:07.686Z,288.00
2018-03-16T06:28:07.689Z,300.00
2018-03-16T06:29:07.676Z,308.00
2018-03-16T06:30:07.671Z,328.00
2018-03-16T06:31:07.664Z,348.00
2018-03-16T06:32:07.659Z,368.00
2018-03-16T06:33:07.655Z,388.00
2018-03-16T06:34:07.647Z,408.00
2018-03-16T06:35:07.643Z,424.00
2018-03-16T06:36:07.648Z,440.00
2018-03-16T06:37:07.630Z,448.00
2018-03-16T06:38:07.623Z,464.00
2018-03-16T06:39:07.621Z,476.00
2018-03-16T06:40:07.612Z,496.00
2018-03-16T06:41:07.609Z,520.00
2018-03-16T06:42:07.603Z,536.00
2018-03-16T06:43:07.597Z,548.00
2018-03-16T06:44:07.591Z,560.00
2018-03-16T06:45:07.607Z,568.00
2018-03-16T06:46:07.578Z,580.00
2018-03-16T06:47:07.575Z,588.00
2018-03-16T06:48:07.568Z,596.00
2018-03-16T06:49:07.562Z,608.00
2018-03-16T06:50:07.557Z,624.00
2018-03-16T06:51:07.551Z,640.00
2018-03-16T06:52:07.546Z,652.00
2018-03-16T06:53:07.540Z,668.00
2018-03-16T06:54:07.534Z,688.00
2018-03-16T06:55:07.528Z,708.00
2018-03-16T06:56:07.524Z,732.00
2018-03-16T06:57:07.518Z,760.00
2018-03-16T06:58:07.513Z,788.00
2018-03-16T06:59:07.506Z,816.00
2018-03-16T07:00:07.500Z,844.00
2018-03-16T07:01:07.495Z,872.00
2018-03-16T07:02:07.491Z,892.00
2018-03-16T07:03:07.486Z,912.00
2018-03-16T07:04:07.478Z,932.00
2018-03-16T07:05:07.474Z,952.00
2018-03-16T07:06:07.467Z,968.00
2018-03-16T07:07:07.462Z,996.00
2018-03-16T07:08:07.457Z,1024.00
2018-03-16T07:09:07.451Z,1056.00
2018-03-16T07:10:07.444Z,1080.00
2018-03-16T07:11:07.439Z,1104.00
2018-03-16T07:12:07.447Z,1120.00
2018-03-16T07:13:07.428Z,1144.00
2018-03-16T07:14:07.423Z,1172.00
2018-03-16T07:15:07.418Z,1208.00
2018-03-16T07:16:07.413Z,1244.00
2018-03-16T07:17:07.410Z,1280.00
2018-03-16T07:18:07.402Z,1320.00
2018-03-16T07:19:07.396Z,1352.00
2018-03-16T07:20:07.392Z,1380.00
2018-03-16T07:21:07.386Z,1420.00
2018-03-16T07:22:07.380Z,1468.00
2018-03-16T07:23:07.374Z,1532.00
2018-03-16T07:24:07.370Z,1600.00
2018-03-16T07:25:07.364Z,1652.00
2018-03-16T07:26:07.358Z,1704.00
2018-03-16T07:27:07.352Z,1784.00
2018-03-16T07:28:07.350Z,1888.00
2018-03-16T07:29:07.343Z,2004.00
2018-03-16T07:30:07.337Z,2116.00
2018-03-16T07:31:07.331Z,2164.00
2018-03-16T07:32:07.327Z,2148.00
2018-03-16T07:33:07.322Z,2100.00
2018-03-16T07:34:07.316Z,2060.00
2018-03-16T07:35:07.311Z,2024.00
2018-03-16T07:36:07.310Z,1996.00
2018-03-16T07:37:07.355Z,1960.00
2018-03-16T07:38:07.296Z,1968.00
2018-03-16T07:39:07.291Z,1992.00
2018-03-16T07:40:07.286Z,2064.00
2018-03-16T07:41:07.283Z,2156.00
2018-03-16T07:42:07.277Z,2280.00
2018-03-16T07:43:07.271Z,2428.00
2018-03-16T07:44:08.082Z,2552.00
2018-03-16T07:45:07.261Z,2548.00
2018-03-16T07:46:07.254Z,2492.00
2018-03-16T07:47:07.249Z,2508.00
2018-03-16T07:48:07.246Z,2524.00
2018-03-16T07:49:07.241Z,2532.00
2018-03-16T07:50:07.234Z,2556.00
2018-03-16T07:51:07.231Z,2540.00
2018-03-16T07:52:07.230Z,2452.00
2018-03-16T07:53:07.220Z,2360.00
2018-03-16T07:54:07.217Z,2272.00
2018-03-16T07:55:07.214Z,2168.00
2018-03-16T07:56:07.210Z,2052.00
2018-03-16T07:57:07.201Z,1956.00
2018-03-16T07:58:07.196Z,1896.00
2018-03-16T07:59:07.192Z,1868.00
2018-03-16T08:00:07.193Z,1848.00
2018-03-16T08:01:07.199Z,1824.00
2018-03-16T08:02:07.176Z,1816.00
2018-03-16T08:03:07.171Z,1820.00
2018-03-16T08:04:07.171Z,1816.00
2018-03-16T08:05:08.275Z,1836.00
2018-03-16T08:06:07.279Z,1864.00
2018-03-16T08:07:07.227Z,1892.00
2018-03-16T08:08:07.219Z,1916.00
2018-03-16T08:09:07.229Z,1960.00
2018-03-16T08:10:07.225Z,1992.00
2018-03-16T08:11:07.134Z,2020.00
2018-03-16T08:12:07.130Z,2052.00
2018-03-16T08:13:07.126Z,2076.00
2018-03-16T08:14:07.118Z,2108.00
2018-03-16T08:15:07.122Z,2160.00
2018-03-16T08:16:07.113Z,2244.00
2018-03-16T08:17:07.108Z,2308.00
2018-03-16T08:18:07.100Z,2388.00
2018-03-16T08:19:07.095Z,2496.00
2018-03-16T08:20:07.094Z,2608.00
2018-03-16T08:21:07.085Z,2660.00
2018-03-16T08:22:07.080Z,2664.00
2018-03-16T08:23:07.075Z,2776.00
2018-03-16T08:24:07.116Z,2888.00
2018-03-16T08:25:07.070Z,2900.00
2018-03-16T08:26:07.062Z,2852.00
2018-03-16T08:27:07.059Z,2764.00
2018-03-16T08:28:07.080Z,2792.00
2018-03-16T08:29:07.048Z,2920.00
2018-03-16T08:30:07.048Z,3108.00
2018-03-16T08:31:07.038Z,3228.00
2018-03-16T08:32:07.036Z,3104.00
2018-03-16T08:33:07.041Z,2908.00
2018-03-16T08:34:07.028Z,2736.00
2018-03-16T08:35:07.115Z,2656.00
2018-03-16T08:36:07.018Z,2620.00
2018-03-16T08:37:07.013Z,2564.00
2018-03-16T08:38:07.020Z,2520.00
2018-03-16T08:39:07.040Z,2468.00
2018-03-16T08:40:07.002Z,2400.00
2018-03-16T08:41:06.996Z,2336.00
2018-03-16T08:42:06.992Z,2312.00
2018-03-16T08:43:06.993Z,2372.00
2018-03-16T08:44:06.982Z,2500.00
2018-03-16T08:45:06.981Z,2704.00
2018-03-16T08:46:06.998Z,2912.00
2018-03-16T08:47:06.971Z,3100.00
2018-03-16T08:48:06.964Z,3164.00
2018-03-16T08:49:06.959Z,3180.00
2018-03-16T08:50:06.954Z,3372.00
2018-03-16T08:51:06.967Z,3364.00
2018-03-16T08:52:06.947Z,2888.00
2018-03-16T08:53:06.941Z,2640.00
2018-03-16T08:54:06.937Z,2544.00
2018-03-16T08:55:06.935Z,2516.00
2018-03-16T08:56:06.932Z,2396.00
2018-03-16T08:57:06.924Z,2308.00
2018-03-16T08:58:06.919Z,2176.00
2018-03-16T08:59:06.916Z,2176.00
2018-03-16T09:00:06.911Z,2200.00
2018-03-16T09:01:06.907Z,2272.00
2018-03-16T09:02:06.902Z,2252.00
2018-03-16T09:03:06.898Z,2164.00
2018-03-16T09:04:06.896Z,2088.00
2018-03-16T09:05:06.890Z,2076.00
2018-03-16T09:06:06.884Z,2120.00
2018-03-16T09:07:06.880Z,2144.00
2018-03-16T09:08:06.875Z,2172.00
2018-03-16T09:09:06.873Z,2232.00
2018-03-16T09:10:06.872Z,2272.00
2018-03-16T09:11:06.863Z,2328.00
2018-03-16T09:12:06.860Z,2384.00
2018-03-16T09:13:06.854Z,2380.00
2018-03-16T09:14:06.850Z,2304.00
2018-03-16T09:15:06.846Z,2204.00
2018-03-16T09:16:06.846Z,2116.00
2018-03-16T09:17:06.926Z,2084.00
2018-03-16T09:18:06.833Z,2088.00
2018-03-16T09:19:06.836Z,2092.00
2018-03-16T09:20:06.830Z,2128.00
2018-03-16T09:21:06.824Z,2120.00
2018-03-16T09:22:06.815Z,2140.00
2018-03-16T09:23:06.811Z,2264.00
2018-03-16T09:24:06.806Z,2364.00
2018-03-16T09:25:06.802Z,2456.00
2018-03-16T09:26:06.797Z,2572.00
2018-03-16T09:27:06.799Z,2424.00
2018-03-16T09:28:06.790Z,2244.00
2018-03-16T09:29:06.785Z,2116.00
2018-03-16T09:30:06.781Z,2080.00
2018-03-16T09:31:06.775Z,2176.00
2018-03-16T09:32:06.773Z,2164.00
2018-03-16T09:33:06.768Z,2036.00
2018-03-16T09:34:06.763Z,1928.00
2018-03-16T09:35:06.759Z,1880.00
2018-03-16T09:36:06.754Z,1880.00
2018-03-16T09:37:06.751Z,1912.00
2018-03-16T09:38:06.745Z,1984.00
2018-03-16T09:39:06.741Z,2068.00
2018-03-16T09:40:06.738Z,2160.00
2018-03-16T09:41:06.733Z,2240.00
2018-03-16T09:42:06.728Z,2268.00
2018-03-16T09:43:06.728Z,2268.00
2018-03-16T09:44:06.721Z,2236.00
2018-03-16T09:45:06.721Z,2224.00
2018-03-16T09:46:06.711Z,2268.00
2018-03-16T09:47:06.708Z,2264.00
2018-03-16T09:48:06.703Z,2216.00
2018-03-16T09:49:06.700Z,2232.00
2018-03-16T09:50:06.695Z,2384.00
2018-03-16T09:51:06.689Z,2620.00
2018-03-16T09:52:06.686Z,2640.00
2018-03-16T09:53:06.683Z,2560.00
2018-03-16T09:54:06.677Z,2504.00
2018-03-16T09:55:06.684Z,2492.00
2018-03-16T09:56:06.669Z,2528.00
2018-03-16T09:57:06.668Z,2552.00
2018-03-16T09:58:06.662Z,2592.00
2018-03-16T09:59:06.656Z,2560.00
2018-03-16T10:00:06.653Z,2528.00
2018-03-16T10:01:06.649Z,2568.00
2018-03-16T10:02:06.693Z,2652.00
2018-03-16T10:03:06.645Z,2752.00
2018-03-16T10:04:06.636Z,2824.00
2018-03-16T10:05:06.631Z,2700.00
2018-03-16T10:06:06.630Z,2520.00
2018-03-16T10:07:06.621Z,2464.00
2018-03-16T10:08:06.617Z,2660.00
2018-03-16T10:09:06.615Z,2768.00
2018-03-16T10:10:06.609Z,2592.00
2018-03-16T10:11:06.603Z,2572.00
2018-03-16T10:12:06.638Z,2844.00
2018-03-16T10:13:06.596Z,2936.00
2018-03-16T10:14:06.593Z,2840.00
2018-03-16T10:15:06.588Z,2448.00
2018-03-16T10:16:06.584Z,2300.00
2018-03-16T10:17:06.583Z,2388.00
2018-03-16T10:18:06.577Z,2272.00
2018-03-16T10:19:06.572Z,2272.00
2018-03-16T10:20:06.568Z,2244.00
2018-03-16T10:21:06.564Z,2148.00
2018-03-16T10:22:06.559Z,1936.00
2018-03-16T10:23:06.557Z,1688.00
2018-03-16T10:24:06.551Z,1508.00
2018-03-16T10:25:06.548Z,1484.00
2018-03-16T10:26:06.542Z,1584.00
2018-03-16T10:27:06.538Z,1748.00
2018-03-16T10:28:06.536Z,1892.00
2018-03-16T10:29:06.531Z,1820.00
2018-03-16T10:30:06.549Z,1652.00
2018-03-16T10:31:06.591Z,1560.00
2018-03-16T10:32:06.521Z,1628.00
2018-03-16T10:33:06.513Z,1808.00
2018-03-16T10:34:06.508Z,2008.00
2018-03-16T10:35:06.506Z,2180.00
2018-03-16T10:36:06.502Z,2200.00
2018-03-16T10:37:06.542Z,2036.00
2018-03-16T10:38:06.493Z,1964.00
2018-03-16T10:39:06.486Z,2000.00
2018-03-16T10:40:06.484Z,2068.00
2018-03-16T10:41:06.485Z,2148.00
2018-03-16T10:42:06.476Z,2184.00
2018-03-16T10:43:06.472Z,2284.00
2018-03-16T10:44:06.466Z,2364.00
2018-03-16T10:45:06.463Z,2220.00
2018-03-16T10:46:06.460Z,2124.00
2018-03-16T10:47:06.456Z,2120.00
2018-03-16T10:48:06.453Z,2080.00
2018-03-16T10:49:06.450Z,1988.00
2018-03-16T10:50:06.443Z,1856.00
2018-03-16T10:51:06.437Z,1792.00
2018-03-16T10:52:06.436Z,1816.00
2018-03-16T10:53:06.427Z,1828.00
2018-03-16T10:54:06.423Z,1888.00
2018-03-16T10:55:06.419Z,1948.00
2018-03-16T10:56:06.414Z,1964.00
2018-03-16T10:57:06.413Z,1956.00
2018-03-16T10:58:06.407Z,1888.00
2018-03-16T10:59:06.402Z,1848.00
2018-03-16T11:00:06.398Z,1828.00
2018-03-16T11:01:06.394Z,1796.00
2018-03-16T11:02:06.388Z,1804.00
2018-03-16T11:03:06.390Z,1756.00
2018-03-16T11:04:06.383Z,1728.00
2018-03-16T11:05:06.376Z,1748.00
2018-03-16T11:06:06.370Z,1764.00
2018-03-16T11:07:06.368Z,1780.00
2018-03-16T11:08:06.362Z,1728.00
2018-03-16T11:09:06.359Z,1648.00
2018-03-16T11:10:06.356Z,1616.00
2018-03-16T11:11:06.370Z,1660.00
2018-03-16T11:12:06.345Z,1728.00
2018-03-16T11:13:06.347Z,1836.00
2018-03-16T11:14:06.337Z,1880.00
2018-03-16T11:15:06.332Z,1908.00
2018-03-16T11:16:06.328Z,1976.00
2018-03-16T11:17:06.326Z,1932.00
2018-03-16T11:18:06.358Z,1864.00
2018-03-16T11:19:06.315Z,1796.00
2018-03-16T11:20:06.312Z,1808.00
2018-03-16T11:21:06.310Z,1896.00
2018-03-16T11:22:06.319Z,1984.00
2018-03-16T11:23:06.302Z,2092.00
2018-03-16T11:24:06.294Z,2128.00
2018-03-16T11:25:06.292Z,2132.00
2018-03-16T11:26:06.287Z,2156.00
2018-03-16T11:27:06.288Z,2148.00
2018-03-16T11:28:06.286Z,2172.00
2018-03-16T11:29:06.272Z,2304.00
2018-03-16T11:30:06.268Z,2600.00
2018-03-16T11:31:06.271Z,2648.00
2018-03-16T11:32:06.267Z,2596.00
2018-03-16T11:33:06.255Z,2544.00
2018-03-16T11:34:06.264Z,2504.00
2018-03-16T11:35:06.246Z,2460.00
2018-03-16T11:36:06.244Z,2320.00
2018-03-16T11:37:06.243Z,2068.00
2018-03-16T11:38:06.236Z,1884.00
2018-03-16T11:39:06.282Z,1764.00
2018-03-16T11:40:06.224Z,1708.00
2018-03-16T11:41:06.221Z,1724.00
2018-03-16T11:42:06.222Z,1784.00
2018-03-16T11:43:06.589Z,1780.00
2018-03-16T11:44:06.314Z,1712.00
2018-03-16T11:45:06.258Z,1704.00
2018-03-16T11:46:07.045Z,1692.00
2018-03-16T11:47:06.197Z,1648.00
2018-03-16T11:48:06.227Z,1620.00
2018-03-16T11:49:06.187Z,1588.00
2018-03-16T11:50:06.189Z,1580.00
2018-03-16T11:51:06.244Z,1628.00
2018-03-16T11:52:06.174Z,1660.00
2018-03-16T11:53:06.171Z,1664.00
2018-03-16T11:54:06.168Z,1644.00
2018-03-16T11:55:06.189Z,1664.00
2018-03-16T11:56:06.159Z,1704.00
2018-03-16T11:57:06.155Z,1704.00
2018-03-16T11:58:06.216Z,1632.00
2018-03-16T11:59:06.264Z,1572.00
2018-03-16T12:00:06.140Z,1512.00
2018-03-16T12:01:06.142Z,1428.00
2018-03-16T12:02:06.178Z,1276.00
2018-03-16T12:03:06.127Z,1116.00
2018-03-16T12:04:06.126Z,996.00
2018-03-16T12:05:06.118Z,952.00
2018-03-16T12:06:06.115Z,976.00
2018-03-16T12:07:06.111Z,1048.00
2018-03-16T12:08:06.107Z,1136.00
2018-03-16T12:09:06.102Z,1196.00
2018-03-16T12:10:06.113Z,1232.00
2018-03-16T12:11:06.092Z,1224.00
2018-03-16T12:12:06.088Z,1220.00
2018-03-16T12:13:06.082Z,1216.00
2018-03-16T12:14:06.078Z,1204.00
2018-03-16T12:15:06.078Z,1260.00
2018-03-16T12:16:06.070Z,1280.00
2018-03-16T12:17:06.069Z,1256.00
2018-03-16T12:18:06.062Z,1216.00
2018-03-16T12:19:06.066Z,1164.00
2018-03-16T12:20:06.054Z,1160.00
2018-03-16T12:21:06.047Z,1124.00
2018-03-16T12:22:06.041Z,1016.00
2018-03-16T12:23:06.042Z,968.00
2018-03-16T12:24:06.032Z,980.00
2018-03-16T12:25:06.029Z,988.00
2018-03-16T12:26:06.026Z,968.00
2018-03-16T12:27:06.019Z,900.00
2018-03-16T12:28:06.014Z,868.00
2018-03-16T12:29:06.009Z,852.00
2018-03-16T12:30:06.010Z,872.00
2018-03-16T12:31:06.000Z,896.00
2018-03-16T12:32:05.996Z,896.00
2018-03-16T12:33:05.991Z,900.00
2018-03-16T12:34:05.986Z,924.00
2018-03-16T12:35:05.984Z,924.00
2018-03-16T12:36:05.985Z,880.00
2018-03-16T12:37:05.975Z,864.00
2018-03-16T12:38:05.968Z,828.00
2018-03-16T12:39:05.964Z,760.00
2018-03-16T12:40:05.959Z,712.00
2018-03-16T12:41:05.955Z,716.00
2018-03-16T12:42:05.948Z,732.00
2018-03-16T12:43:05.947Z,780.00
2018-03-16T12:44:05.942Z,780.00
2018-03-16T12:45:05.938Z,772.00